sensor_id;sensor_type;location;lat;lon;timestamp;temperature;humidity
21261;DHT22;10788;47.930;9.766;2022-07-10T00:00:00;17.90;99.90
21261;DHT22;10788;47.930;9.766;2022-07-10T00:02:26;17.90;99.90
21261;DHT22;10788;47.930;9.766;2022-07-10T00:04:52;17.90;99.90
21261;DHT22;10788;47.930;9.766;2022-07-10T00:07:18;18.00;99.90
21261;DHT22;10788;47.930;9.766;2022-07-10T00:09:43;17.90;99.90
21261;DHT22;10788;47.930;9.766;2022-07-10T00:12:09;17.90;99.90
21261;DHT22;10788;47.930;9.766;2022-07-10T00:14:34;17.80;99.90
21261;DHT22;10788;47.930;9.766;2022-07-10T00:17:00;17.80;99.90
21261;DHT22;10788;47.930;9.766;2022-07-10T00:19:26;17.80;99.90
21261;DHT22;10788;47.930;9.766;2022-07-10T00:21:51;17.80;99.90
21261;DHT22;10788;47.930;9.766;2022-07-10T00:24:17;17.80;99.90
21261;DHT22;10788;47.930;9.766;2022-07-10T00:26:43;17.80;99.90
21261;DHT22;10788;47.930;9.766;2022-07-10T00:29:08;17.80;99.90
21261;DHT22;10788;47.930;9.766;2022-07-10T00:31:34;17.80;99.90
21261;DHT22;10788;47.930;9.766;2022-07-10T00:34:00;17.80;99.90
21261;DHT22;10788;47.930;9.766;2022-07-10T00:36:25;17.80;99.90
21261;DHT22;10788;47.930;9.766;2022-07-10T00:38:51;17.70;99.90
21261;DHT22;10788;47.930;9.766;2022-07-10T00:41:17;17.70;99.90
21261;DHT22;10788;47.930;9.766;2022-07-10T00:44:00;17.70;99.90
21261;DHT22;10788;47.930;9.766;2022-07-10T00:46:27;17.60;99.90
21261;DHT22;10788;47.930;9.766;2022-07-10T00:48:53;17.50;99.90
21261;DHT22;10788;47.930;9.766;2022-07-10T00:51:24;17.40;99.90
21261;DHT22;10788;47.930;9.766;2022-07-10T00:53:50;17.30;99.90
21261;DHT22;10788;47.930;9.766;2022-07-10T00:56:18;17.30;99.90
21261;DHT22;10788;47.930;9.766;2022-07-10T00:58:46;17.30;99.90
21261;DHT22;10788;47.930;9.766;2022-07-10T01:01:12;17.20;99.90
21261;DHT22;10788;47.930;9.766;2022-07-10T01:03:39;17.20;99.90
21261;DHT22;10788;47.930;9.766;2022-07-10T01:06:04;17.20;99.90
21261;DHT22;10788;47.930;9.766;2022-07-10T01:08:30;17.10;99.90
21261;DHT22;10788;47.930;9.766;2022-07-10T01:10:57;17.00;99.90
21261;DHT22;10788;47.930;9.766;2022-07-10T01:13:23;17.00;99.90
21261;DHT22;10788;47.930;9.766;2022-07-10T01:15:48;17.00;99.90
21261;DHT22;10788;47.930;9.766;2022-07-10T01:18:15;16.90;99.90
21261;DHT22;10788;47.930;9.766;2022-07-10T01:20:41;16.90;99.90
21261;DHT22;10788;47.930;9.766;2022-07-10T01:23:06;16.90;99.90
21261;DHT22;10788;47.930;9.766;2022-07-10T01:25:32;16.90;99.90
21261;DHT22;10788;47.930;9.766;2022-07-10T01:27:58;16.80;99.90
21261;DHT22;10788;47.930;9.766;2022-07-10T01:30:25;16.80;99.90
21261;DHT22;10788;47.930;9.766;2022-07-10T01:32:51;16.80;99.90
21261;DHT22;10788;47.930;9.766;2022-07-10T01:35:18;16.70;99.90
21261;DHT22;10788;47.930;9.766;2022-07-10T01:37:44;16.70;99.90
21261;DHT22;10788;47.930;9.766;2022-07-10T01:40:11;16.70;99.90
21261;DHT22;10788;47.930;9.766;2022-07-10T01:42:38;16.70;99.90
21261;DHT22;10788;47.930;9.766;2022-07-10T01:45:06;16.70;99.90
21261;DHT22;10788;47.930;9.766;2022-07-10T01:47:32;16.70;99.90
21261;DHT22;10788;47.930;9.766;2022-07-10T01:49:57;16.60;99.90
21261;DHT22;10788;47.930;9.766;2022-07-10T01:52:23;16.60;99.90
21261;DHT22;10788;47.930;9.766;2022-07-10T01:54:49;16.60;99.90
21261;DHT22;10788;47.930;9.766;2022-07-10T01:57:15;16.60;99.90
21261;DHT22;10788;47.930;9.766;2022-07-10T01:59:41;16.50;99.90
21261;DHT22;10788;47.930;9.766;2022-07-10T02:02:07;16.50;99.90
21261;DHT22;10788;47.930;9.766;2022-07-10T02:04:33;16.50;99.90
21261;DHT22;10788;47.930;9.766;2022-07-10T02:07:15;16.50;99.90
21261;DHT22;10788;47.930;9.766;2022-07-10T02:09:41;16.40;99.90
21261;DHT22;10788;47.930;9.766;2022-07-10T02:12:09;16.30;99.90
21261;DHT22;10788;47.930;9.766;2022-07-10T02:14:35;16.20;99.90
21261;DHT22;10788;47.930;9.766;2022-07-10T02:17:02;16.20;99.90
21261;DHT22;10788;47.930;9.766;2022-07-10T02:19:28;16.20;99.90
21261;DHT22;10788;47.930;9.766;2022-07-10T02:21:54;16.10;99.90
21261;DHT22;10788;47.930;9.766;2022-07-10T02:24:19;16.10;99.90
21261;DHT22;10788;47.930;9.766;2022-07-10T02:26:45;16.10;99.90
21261;DHT22;10788;47.930;9.766;2022-07-10T02:29:11;16.10;99.90
21261;DHT22;10788;47.930;9.766;2022-07-10T02:31:36;16.10;99.90
21261;DHT22;10788;47.930;9.766;2022-07-10T02:34:15;16.10;99.90
21261;DHT22;10788;47.930;9.766;2022-07-10T02:36:40;16.10;99.90
21261;DHT22;10788;47.930;9.766;2022-07-10T02:39:07;16.10;99.90
21261;DHT22;10788;47.930;9.766;2022-07-10T02:41:33;16.10;99.90
21261;DHT22;10788;47.930;9.766;2022-07-10T02:43:59;16.10;99.90
21261;DHT22;10788;47.930;9.766;2022-07-10T02:46:24;16.10;99.90
21261;DHT22;10788;47.930;9.766;2022-07-10T02:48:50;16.10;99.90
21261;DHT22;10788;47.930;9.766;2022-07-10T02:51:16;16.10;99.90
21261;DHT22;10788;47.930;9.766;2022-07-10T02:53:42;16.10;99.90
21261;DHT22;10788;47.930;9.766;2022-07-10T02:56:08;16.00;99.90
21261;DHT22;10788;47.930;9.766;2022-07-10T02:58:33;16.00;99.90
21261;DHT22;10788;47.930;9.766;2022-07-10T03:00:59;16.00;99.90
21261;DHT22;10788;47.930;9.766;2022-07-10T03:03:25;16.10;99.90
21261;DHT22;10788;47.930;9.766;2022-07-10T03:05:51;15.90;99.90
21261;DHT22;10788;47.930;9.766;2022-07-10T03:08:16;15.90;99.90
21261;DHT22;10788;47.930;9.766;2022-07-10T03:10:42;15.90;99.90
21261;DHT22;10788;47.930;9.766;2022-07-10T03:13:08;15.80;99.90
21261;DHT22;10788;47.930;9.766;2022-07-10T03:15:34;15.80;99.90
21261;DHT22;10788;47.930;9.766;2022-07-10T03:18:00;15.80;99.90
21261;DHT22;10788;47.930;9.766;2022-07-10T03:20:25;15.90;99.90
21261;DHT22;10788;47.930;9.766;2022-07-10T03:22:51;15.90;99.90
21261;DHT22;10788;47.930;9.766;2022-07-10T03:25:17;15.90;99.90
21261;DHT22;10788;47.930;9.766;2022-07-10T03:27:43;15.90;99.90
21261;DHT22;10788;47.930;9.766;2022-07-10T03:30:09;15.90;99.90
21261;DHT22;10788;47.930;9.766;2022-07-10T03:32:35;15.90;99.90
21261;DHT22;10788;47.930;9.766;2022-07-10T03:35:01;15.80;99.90
21261;DHT22;10788;47.930;9.766;2022-07-10T03:37:27;15.80;99.90
21261;DHT22;10788;47.930;9.766;2022-07-10T03:39:53;15.80;99.90
21261;DHT22;10788;47.930;9.766;2022-07-10T03:42:19;15.80;99.90
21261;DHT22;10788;47.930;9.766;2022-07-10T03:44:45;15.80;99.90
21261;DHT22;10788;47.930;9.766;2022-07-10T03:47:11;15.80;99.90
21261;DHT22;10788;47.930;9.766;2022-07-10T03:49:37;15.70;99.90
21261;DHT22;10788;47.930;9.766;2022-07-10T03:52:07;15.70;99.90
21261;DHT22;10788;47.930;9.766;2022-07-10T03:54:33;15.70;99.90
21261;DHT22;10788;47.930;9.766;2022-07-10T03:56:58;15.70;99.90
21261;DHT22;10788;47.930;9.766;2022-07-10T03:59:43;15.70;99.90
21261;DHT22;10788;47.930;9.766;2022-07-10T04:02:08;15.70;99.90
21261;DHT22;10788;47.930;9.766;2022-07-10T04:04:34;15.70;99.90
21261;DHT22;10788;47.930;9.766;2022-07-10T04:07:00;15.70;99.90
21261;DHT22;10788;47.930;9.766;2022-07-10T04:09:26;15.70;99.90
21261;DHT22;10788;47.930;9.766;2022-07-10T04:11:51;15.70;99.90
21261;DHT22;10788;47.930;9.766;2022-07-10T04:14:17;15.70;99.90
21261;DHT22;10788;47.930;9.766;2022-07-10T04:16:43;15.70;99.90
21261;DHT22;10788;47.930;9.766;2022-07-10T04:19:09;15.80;99.90
21261;DHT22;10788;47.930;9.766;2022-07-10T04:21:35;15.80;99.90
21261;DHT22;10788;47.930;9.766;2022-07-10T04:24:02;15.80;99.90
21261;DHT22;10788;47.930;9.766;2022-07-10T04:26:28;15.80;99.90
21261;DHT22;10788;47.930;9.766;2022-07-10T04:28:54;15.90;99.90
21261;DHT22;10788;47.930;9.766;2022-07-10T04:31:20;15.90;99.90
21261;DHT22;10788;47.930;9.766;2022-07-10T04:33:47;15.90;99.90
21261;DHT22;10788;47.930;9.766;2022-07-10T04:36:14;15.90;99.90
21261;DHT22;10788;47.930;9.766;2022-07-10T04:38:40;15.90;99.90
21261;DHT22;10788;47.930;9.766;2022-07-10T04:41:05;15.90;99.90
21261;DHT22;10788;47.930;9.766;2022-07-10T04:43:32;15.90;99.90
21261;DHT22;10788;47.930;9.766;2022-07-10T04:45:58;15.90;99.90
21261;DHT22;10788;47.930;9.766;2022-07-10T04:48:24;15.90;99.90
21261;DHT22;10788;47.930;9.766;2022-07-10T04:50:50;16.00;99.90
21261;DHT22;10788;47.930;9.766;2022-07-10T04:53:16;16.00;99.90
21261;DHT22;10788;47.930;9.766;2022-07-10T04:55:41;15.90;99.90
21261;DHT22;10788;47.930;9.766;2022-07-10T04:58:07;15.80;99.90
21261;DHT22;10788;47.930;9.766;2022-07-10T05:00:36;15.80;99.90
21261;DHT22;10788;47.930;9.766;2022-07-10T05:03:02;15.80;99.90
21261;DHT22;10788;47.930;9.766;2022-07-10T05:05:28;15.70;99.90
21261;DHT22;10788;47.930;9.766;2022-07-10T05:07:54;15.70;99.90
21261;DHT22;10788;47.930;9.766;2022-07-10T05:10:20;15.70;99.90
21261;DHT22;10788;47.930;9.766;2022-07-10T05:12:46;15.70;99.90
21261;DHT22;10788;47.930;9.766;2022-07-10T05:15:12;15.80;99.90
21261;DHT22;10788;47.930;9.766;2022-07-10T05:17:38;15.90;99.90
21261;DHT22;10788;47.930;9.766;2022-07-10T05:20:04;16.00;99.90
21261;DHT22;10788;47.930;9.766;2022-07-10T05:22:30;16.10;99.90
21261;DHT22;10788;47.930;9.766;2022-07-10T05:24:57;16.10;99.90
21261;DHT22;10788;47.930;9.766;2022-07-10T05:27:23;16.10;99.90
21261;DHT22;10788;47.930;9.766;2022-07-10T05:29:49;16.20;99.90
21261;DHT22;10788;47.930;9.766;2022-07-10T05:32:17;16.20;99.90
21261;DHT22;10788;47.930;9.766;2022-07-10T05:34:42;16.20;99.90
21261;DHT22;10788;47.930;9.766;2022-07-10T05:37:10;16.20;99.90
21261;DHT22;10788;47.930;9.766;2022-07-10T05:39:36;16.10;99.90
21261;DHT22;10788;47.930;9.766;2022-07-10T05:42:02;16.10;99.90
21261;DHT22;10788;47.930;9.766;2022-07-10T05:44:28;16.10;99.90
21261;DHT22;10788;47.930;9.766;2022-07-10T05:46:54;16.10;99.90
21261;DHT22;10788;47.930;9.766;2022-07-10T05:49:22;16.10;99.90
21261;DHT22;10788;47.930;9.766;2022-07-10T05:51:49;16.20;99.90
21261;DHT22;10788;47.930;9.766;2022-07-10T05:54:15;16.20;99.90
21261;DHT22;10788;47.930;9.766;2022-07-10T05:56:40;16.20;99.90
21261;DHT22;10788;47.930;9.766;2022-07-10T05:59:06;16.40;99.90
21261;DHT22;10788;47.930;9.766;2022-07-10T06:01:32;16.40;99.90
21261;DHT22;10788;47.930;9.766;2022-07-10T06:03:58;16.40;99.90
21261;DHT22;10788;47.930;9.766;2022-07-10T06:06:23;16.50;99.90
21261;DHT22;10788;47.930;9.766;2022-07-10T06:08:49;16.50;99.90
21261;DHT22;10788;47.930;9.766;2022-07-10T06:11:15;16.70;99.90
21261;DHT22;10788;47.930;9.766;2022-07-10T06:13:41;16.80;99.90
21261;DHT22;10788;47.930;9.766;2022-07-10T06:16:07;17.00;99.90
21261;DHT22;10788;47.930;9.766;2022-07-10T06:18:33;17.00;99.90
21261;DHT22;10788;47.930;9.766;2022-07-10T06:20:58;17.10;99.90
21261;DHT22;10788;47.930;9.766;2022-07-10T06:23:24;17.00;99.90
21261;DHT22;10788;47.930;9.766;2022-07-10T06:25:50;17.00;99.90
21261;DHT22;10788;47.930;9.766;2022-07-10T06:28:16;17.00;99.90
21261;DHT22;10788;47.930;9.766;2022-07-10T06:30:42;17.10;99.90
21261;DHT22;10788;47.930;9.766;2022-07-10T06:33:08;17.10;99.90
21261;DHT22;10788;47.930;9.766;2022-07-10T06:35:33;17.00;99.90
21261;DHT22;10788;47.930;9.766;2022-07-10T06:37:59;17.00;99.90
21261;DHT22;10788;47.930;9.766;2022-07-10T06:40:25;17.00;99.90
21261;DHT22;10788;47.930;9.766;2022-07-10T06:42:51;16.90;99.90
21261;DHT22;10788;47.930;9.766;2022-07-10T06:45:17;16.90;99.90
21261;DHT22;10788;47.930;9.766;2022-07-10T06:47:43;17.00;99.90
21261;DHT22;10788;47.930;9.766;2022-07-10T06:50:26;17.00;99.90
21261;DHT22;10788;47.930;9.766;2022-07-10T06:52:52;16.90;99.90
21261;DHT22;10788;47.930;9.766;2022-07-10T06:55:21;16.90;99.90
21261;DHT22;10788;47.930;9.766;2022-07-10T06:57:47;16.80;99.90
21261;DHT22;10788;47.930;9.766;2022-07-10T07:00:13;16.90;99.90
21261;DHT22;10788;47.930;9.766;2022-07-10T07:02:39;16.90;99.90
21261;DHT22;10788;47.930;9.766;2022-07-10T07:05:05;16.90;99.90
21261;DHT22;10788;47.930;9.766;2022-07-10T07:07:31;16.80;99.90
21261;DHT22;10788;47.930;9.766;2022-07-10T07:09:57;16.70;99.90
21261;DHT22;10788;47.930;9.766;2022-07-10T07:12:23;16.70;99.90
21261;DHT22;10788;47.930;9.766;2022-07-10T07:14:48;16.70;99.90
21261;DHT22;10788;47.930;9.766;2022-07-10T07:17:15;16.90;99.90
21261;DHT22;10788;47.930;9.766;2022-07-10T07:19:47;17.00;99.90
21261;DHT22;10788;47.930;9.766;2022-07-10T07:22:31;17.00;99.90
21261;DHT22;10788;47.930;9.766;2022-07-10T07:25:16;17.10;99.90
21261;DHT22;10788;47.930;9.766;2022-07-10T07:27:41;17.30;99.90
21261;DHT22;10788;47.930;9.766;2022-07-10T07:30:09;17.50;99.90
21261;DHT22;10788;47.930;9.766;2022-07-10T07:32:43;17.50;99.90
21261;DHT22;10788;47.930;9.766;2022-07-10T07:35:09;17.50;99.90
21261;DHT22;10788;47.930;9.766;2022-07-10T07:37:40;17.60;99.90
21261;DHT22;10788;47.930;9.766;2022-07-10T07:40:08;17.60;99.90
21261;DHT22;10788;47.930;9.766;2022-07-10T07:42:35;17.40;99.90
21261;DHT22;10788;47.930;9.766;2022-07-10T07:45:01;17.30;99.90
21261;DHT22;10788;47.930;9.766;2022-07-10T07:47:27;17.40;99.90
21261;DHT22;10788;47.930;9.766;2022-07-10T07:49:53;17.50;99.90
21261;DHT22;10788;47.930;9.766;2022-07-10T07:52:18;17.60;99.90
21261;DHT22;10788;47.930;9.766;2022-07-10T07:54:44;17.80;99.90
21261;DHT22;10788;47.930;9.766;2022-07-10T07:57:10;17.80;99.90
21261;DHT22;10788;47.930;9.766;2022-07-10T07:59:36;17.80;99.90
21261;DHT22;10788;47.930;9.766;2022-07-10T08:02:02;17.90;99.90
21261;DHT22;10788;47.930;9.766;2022-07-10T08:04:27;17.90;99.90
21261;DHT22;10788;47.930;9.766;2022-07-10T08:06:53;17.90;99.90
21261;DHT22;10788;47.930;9.766;2022-07-10T08:09:19;18.00;99.90
21261;DHT22;10788;47.930;9.766;2022-07-10T08:11:45;18.10;99.90
21261;DHT22;10788;47.930;9.766;2022-07-10T08:14:12;18.10;99.90
21261;DHT22;10788;47.930;9.766;2022-07-10T08:16:38;18.10;99.90
21261;DHT22;10788;47.930;9.766;2022-07-10T08:19:03;18.20;99.90
21261;DHT22;10788;47.930;9.766;2022-07-10T08:21:29;18.30;99.90
21261;DHT22;10788;47.930;9.766;2022-07-10T08:23:55;18.40;99.90
21261;DHT22;10788;47.930;9.766;2022-07-10T08:26:21;18.30;99.90
21261;DHT22;10788;47.930;9.766;2022-07-10T08:28:47;18.40;99.90
21261;DHT22;10788;47.930;9.766;2022-07-10T08:31:13;18.60;99.90
21261;DHT22;10788;47.930;9.766;2022-07-10T08:33:38;18.80;99.90
21261;DHT22;10788;47.930;9.766;2022-07-10T08:36:04;19.00;99.90
21261;DHT22;10788;47.930;9.766;2022-07-10T08:38:30;19.20;99.90
21261;DHT22;10788;47.930;9.766;2022-07-10T08:40:56;19.20;99.90
21261;DHT22;10788;47.930;9.766;2022-07-10T08:43:23;19.30;99.90
21261;DHT22;10788;47.930;9.766;2022-07-10T08:45:51;19.20;99.90
21261;DHT22;10788;47.930;9.766;2022-07-10T08:48:22;19.30;99.90
21261;DHT22;10788;47.930;9.766;2022-07-10T08:50:52;19.30;99.90
21261;DHT22;10788;47.930;9.766;2022-07-10T08:53:28;19.40;99.90
21261;DHT22;10788;47.930;9.766;2022-07-10T08:55:55;19.40;99.90
21261;DHT22;10788;47.930;9.766;2022-07-10T08:58:22;19.50;99.90
21261;DHT22;10788;47.930;9.766;2022-07-10T09:00:48;19.50;99.90
21261;DHT22;10788;47.930;9.766;2022-07-10T09:03:14;19.50;99.90
21261;DHT22;10788;47.930;9.766;2022-07-10T09:05:39;19.40;99.90
21261;DHT22;10788;47.930;9.766;2022-07-10T09:08:24;19.30;99.90
21261;DHT22;10788;47.930;9.766;2022-07-10T09:10:52;19.50;99.90
21261;DHT22;10788;47.930;9.766;2022-07-10T09:13:18;19.90;99.90
21261;DHT22;10788;47.930;9.766;2022-07-10T09:15:48;20.20;99.90
21261;DHT22;10788;47.930;9.766;2022-07-10T09:18:18;20.20;99.90
21261;DHT22;10788;47.930;9.766;2022-07-10T09:20:45;20.30;99.90
21261;DHT22;10788;47.930;9.766;2022-07-10T09:23:24;20.30;99.90
21261;DHT22;10788;47.930;9.766;2022-07-10T09:25:52;20.20;99.90
21261;DHT22;10788;47.930;9.766;2022-07-10T09:28:20;20.40;99.90
21261;DHT22;10788;47.930;9.766;2022-07-10T09:30:46;20.30;99.90
21261;DHT22;10788;47.930;9.766;2022-07-10T09:33:22;20.50;99.90
21261;DHT22;10788;47.930;9.766;2022-07-10T09:41:16;21.50;99.90
21261;DHT22;10788;47.930;9.766;2022-07-10T09:43:52;21.80;99.90
21261;DHT22;10788;47.930;9.766;2022-07-10T09:46:21;22.20;99.90
21261;DHT22;10788;47.930;9.766;2022-07-10T09:49:04;22.60;99.90
21261;DHT22;10788;47.930;9.766;2022-07-10T09:51:32;22.60;99.90
21261;DHT22;10788;47.930;9.766;2022-07-10T09:54:04;22.90;99.90
21261;DHT22;10788;47.930;9.766;2022-07-10T09:59:09;22.50;99.90
21261;DHT22;10788;47.930;9.766;2022-07-10T10:01:36;22.30;99.90
21261;DHT22;10788;47.930;9.766;2022-07-10T10:04:04;22.00;99.90
21261;DHT22;10788;47.930;9.766;2022-07-10T10:06:30;21.60;99.90
21261;DHT22;10788;47.930;9.766;2022-07-10T10:09:07;21.40;99.90
21261;DHT22;10788;47.930;9.766;2022-07-10T10:11:36;21.60;99.90
21261;DHT22;10788;47.930;9.766;2022-07-10T10:14:02;21.80;99.90
21261;DHT22;10788;47.930;9.766;2022-07-10T10:16:29;22.20;99.90
21261;DHT22;10788;47.930;9.766;2022-07-10T10:18:55;22.40;99.90
21261;DHT22;10788;47.930;9.766;2022-07-10T10:21:40;22.50;99.90
21261;DHT22;10788;47.930;9.766;2022-07-10T10:24:06;22.60;99.90
21261;DHT22;10788;47.930;9.766;2022-07-10T10:26:32;22.90;99.90
21261;DHT22;10788;47.930;9.766;2022-07-10T10:29:00;22.90;99.90
21261;DHT22;10788;47.930;9.766;2022-07-10T10:31:28;23.20;99.90
21261;DHT22;10788;47.930;9.766;2022-07-10T10:33:54;23.40;99.90
21261;DHT22;10788;47.930;9.766;2022-07-10T10:39:12;23.30;99.90
21261;DHT22;10788;47.930;9.766;2022-07-10T10:41:42;23.00;99.90
21261;DHT22;10788;47.930;9.766;2022-07-10T10:46:35;22.40;99.90
21261;DHT22;10788;47.930;9.766;2022-07-10T10:49:05;22.40;99.90
21261;DHT22;10788;47.930;9.766;2022-07-10T10:52:10;22.60;99.90
21261;DHT22;10788;47.930;9.766;2022-07-10T10:59:58;23.30;99.90
21261;DHT22;10788;47.930;9.766;2022-07-10T11:02:32;23.50;99.90
21261;DHT22;10788;47.930;9.766;2022-07-10T11:13:08;23.10;99.90
21261;DHT22;10788;47.930;9.766;2022-07-10T11:15:44;23.10;99.90
21261;DHT22;10788;47.930;9.766;2022-07-10T11:18:16;23.10;99.90
21261;DHT22;10788;47.930;9.766;2022-07-10T11:20:47;23.30;99.90
21261;DHT22;10788;47.930;9.766;2022-07-10T11:31:09;23.30;99.90
21261;DHT22;10788;47.930;9.766;2022-07-10T11:33:42;23.30;99.90
21261;DHT22;10788;47.930;9.766;2022-07-10T11:36:14;23.30;99.90
21261;DHT22;10788;47.930;9.766;2022-07-10T11:38:41;23.40;99.90
21261;DHT22;10788;47.930;9.766;2022-07-10T11:41:18;23.50;99.90
21261;DHT22;10788;47.930;9.766;2022-07-10T11:43:52;23.60;99.90
21261;DHT22;10788;47.930;9.766;2022-07-10T11:46:22;23.80;99.90
21261;DHT22;10788;47.930;9.766;2022-07-10T11:48:49;24.00;99.90
21261;DHT22;10788;47.930;9.766;2022-07-10T11:54:09;24.30;99.90
21261;DHT22;10788;47.930;9.766;2022-07-10T11:56:46;24.20;99.90
21261;DHT22;10788;47.930;9.766;2022-07-10T11:59:18;23.80;99.90
21261;DHT22;10788;47.930;9.766;2022-07-10T12:01:49;23.80;99.90
21261;DHT22;10788;47.930;9.766;2022-07-10T12:04:17;23.80;99.90
21261;DHT22;10788;47.930;9.766;2022-07-10T12:06:45;23.90;99.90
21261;DHT22;10788;47.930;9.766;2022-07-10T12:09:15;23.90;99.90
21261;DHT22;10788;47.930;9.766;2022-07-10T12:11:42;24.00;99.90
21261;DHT22;10788;47.930;9.766;2022-07-10T12:16:41;23.90;99.90
21261;DHT22;10788;47.930;9.766;2022-07-10T12:19:15;23.80;99.90
21261;DHT22;10788;47.930;9.766;2022-07-10T12:21:46;24.00;99.90
21261;DHT22;10788;47.930;9.766;2022-07-10T12:24:21;24.00;99.90
21261;DHT22;10788;47.930;9.766;2022-07-10T12:26:47;23.70;99.90
21261;DHT22;10788;47.930;9.766;2022-07-10T12:29:21;23.70;99.90
21261;DHT22;10788;47.930;9.766;2022-07-10T12:31:49;23.70;99.90
21261;DHT22;10788;47.930;9.766;2022-07-10T12:34:16;23.60;99.90
21261;DHT22;10788;47.930;9.766;2022-07-10T12:36:45;23.40;99.90
21261;DHT22;10788;47.930;9.766;2022-07-10T12:39:13;23.00;99.90
21261;DHT22;10788;47.930;9.766;2022-07-10T12:42:01;22.80;99.90
21261;DHT22;10788;47.930;9.766;2022-07-10T12:47:08;23.10;99.90
21261;DHT22;10788;47.930;9.766;2022-07-10T12:49:53;23.20;99.90
21261;DHT22;10788;47.930;9.766;2022-07-10T12:52:24;23.30;99.90
21261;DHT22;10788;47.930;9.766;2022-07-10T12:55:14;23.30;99.90
21261;DHT22;10788;47.930;9.766;2022-07-10T12:57:56;23.30;99.90
21261;DHT22;10788;47.930;9.766;2022-07-10T13:00:33;23.20;99.90
21261;DHT22;10788;47.930;9.766;2022-07-10T13:03:04;23.10;99.90
21261;DHT22;10788;47.930;9.766;2022-07-10T13:05:36;22.90;99.90
21261;DHT22;10788;47.930;9.766;2022-07-10T13:08:20;22.90;99.90
21261;DHT22;10788;47.930;9.766;2022-07-10T13:10:52;22.90;99.90
21261;DHT22;10788;47.930;9.766;2022-07-10T13:13:18;23.10;99.90
21261;DHT22;10788;47.930;9.766;2022-07-10T13:15:44;23.30;99.90
21261;DHT22;10788;47.930;9.766;2022-07-10T13:18:22;23.40;99.90
21261;DHT22;10788;47.930;9.766;2022-07-10T13:20:51;23.50;99.90
21261;DHT22;10788;47.930;9.766;2022-07-10T13:23:17;23.50;99.90
21261;DHT22;10788;47.930;9.766;2022-07-10T13:26:06;23.70;99.90
21261;DHT22;10788;47.930;9.766;2022-07-10T13:28:33;23.70;99.90
21261;DHT22;10788;47.930;9.766;2022-07-10T13:30:59;23.80;99.90
21261;DHT22;10788;47.930;9.766;2022-07-10T13:33:25;24.00;99.90
21261;DHT22;10788;47.930;9.766;2022-07-10T13:35:51;24.00;99.90
21261;DHT22;10788;47.930;9.766;2022-07-10T13:38:17;24.00;99.10
21261;DHT22;10788;47.930;9.766;2022-07-10T13:40:44;23.90;99.10
21261;DHT22;10788;47.930;9.766;2022-07-10T13:43:11;23.90;99.70
21261;DHT22;10788;47.930;9.766;2022-07-10T13:45:38;23.70;98.80
21261;DHT22;10788;47.930;9.766;2022-07-10T13:48:13;23.70;99.90
21261;DHT22;10788;47.930;9.766;2022-07-10T13:50:43;23.70;99.40
21261;DHT22;10788;47.930;9.766;2022-07-10T13:53:09;23.70;99.40
21261;DHT22;10788;47.930;9.766;2022-07-10T13:55:36;23.80;98.20
21261;DHT22;10788;47.930;9.766;2022-07-10T13:58:02;23.90;99.90
21261;DHT22;10788;47.930;9.766;2022-07-10T14:00:27;23.90;97.80
21261;DHT22;10788;47.930;9.766;2022-07-10T14:02:53;23.80;97.20
21261;DHT22;10788;47.930;9.766;2022-07-10T14:05:22;23.90;98.60
21261;DHT22;10788;47.930;9.766;2022-07-10T14:07:47;23.90;98.70
21261;DHT22;10788;47.930;9.766;2022-07-10T14:10:13;23.90;97.60
21261;DHT22;10788;47.930;9.766;2022-07-10T14:12:40;24.00;97.20
21261;DHT22;10788;47.930;9.766;2022-07-10T14:15:06;24.10;96.00
21261;DHT22;10788;47.930;9.766;2022-07-10T14:17:32;23.90;97.10
21261;DHT22;10788;47.930;9.766;2022-07-10T14:19:58;23.90;96.40
21261;DHT22;10788;47.930;9.766;2022-07-10T14:22:23;23.90;96.70
21261;DHT22;10788;47.930;9.766;2022-07-10T14:24:50;23.80;97.00
21261;DHT22;10788;47.930;9.766;2022-07-10T14:27:15;23.80;96.40
21261;DHT22;10788;47.930;9.766;2022-07-10T14:29:41;23.80;97.70
21261;DHT22;10788;47.930;9.766;2022-07-10T14:32:07;23.80;96.60
21261;DHT22;10788;47.930;9.766;2022-07-10T14:34:33;23.90;95.90
21261;DHT22;10788;47.930;9.766;2022-07-10T14:36:58;23.80;96.70
21261;DHT22;10788;47.930;9.766;2022-07-10T14:39:24;23.50;95.80
21261;DHT22;10788;47.930;9.766;2022-07-10T14:41:50;23.40;95.90
21261;DHT22;10788;47.930;9.766;2022-07-10T14:44:15;23.60;96.80
21261;DHT22;10788;47.930;9.766;2022-07-10T14:46:41;23.60;96.50
21261;DHT22;10788;47.930;9.766;2022-07-10T14:49:08;23.70;96.40
21261;DHT22;10788;47.930;9.766;2022-07-10T14:51:34;23.90;96.70
21261;DHT22;10788;47.930;9.766;2022-07-10T14:54:02;23.90;96.40
21261;DHT22;10788;47.930;9.766;2022-07-10T14:56:27;23.90;94.40
21261;DHT22;10788;47.930;9.766;2022-07-10T14:58:53;23.60;95.20
21261;DHT22;10788;47.930;9.766;2022-07-10T15:01:19;23.60;95.90
21261;DHT22;10788;47.930;9.766;2022-07-10T15:03:44;23.60;94.70
21261;DHT22;10788;47.930;9.766;2022-07-10T15:06:10;23.50;94.10
21261;DHT22;10788;47.930;9.766;2022-07-10T15:08:36;23.70;94.50
21261;DHT22;10788;47.930;9.766;2022-07-10T15:11:02;23.70;94.60
21261;DHT22;10788;47.930;9.766;2022-07-10T15:13:29;23.50;94.80
21261;DHT22;10788;47.930;9.766;2022-07-10T15:15:55;23.40;95.80
21261;DHT22;10788;47.930;9.766;2022-07-10T15:18:21;23.30;95.40
21261;DHT22;10788;47.930;9.766;2022-07-10T15:20:47;23.10;95.30
21261;DHT22;10788;47.930;9.766;2022-07-10T15:23:13;23.10;96.00
21261;DHT22;10788;47.930;9.766;2022-07-10T15:25:40;23.10;95.20
21261;DHT22;10788;47.930;9.766;2022-07-10T15:28:07;23.10;94.30
21261;DHT22;10788;47.930;9.766;2022-07-10T15:30:34;23.10;94.80
21261;DHT22;10788;47.930;9.766;2022-07-10T15:32:59;23.00;95.90
21261;DHT22;10788;47.930;9.766;2022-07-10T15:35:25;23.00;96.10
21261;DHT22;10788;47.930;9.766;2022-07-10T15:37:51;23.20;95.30
21261;DHT22;10788;47.930;9.766;2022-07-10T15:40:17;23.30;95.30
21261;DHT22;10788;47.930;9.766;2022-07-10T15:42:43;23.30;95.70
21261;DHT22;10788;47.930;9.766;2022-07-10T15:45:09;23.20;95.80
21261;DHT22;10788;47.930;9.766;2022-07-10T15:47:34;23.30;95.60
21261;DHT22;10788;47.930;9.766;2022-07-10T15:50:00;23.20;95.50
21261;DHT22;10788;47.930;9.766;2022-07-10T15:52:26;23.10;95.20
21261;DHT22;10788;47.930;9.766;2022-07-10T15:54:52;23.10;95.20
21261;DHT22;10788;47.930;9.766;2022-07-10T15:57:18;23.00;94.90
21261;DHT22;10788;47.930;9.766;2022-07-10T15:59:44;22.90;94.70
21261;DHT22;10788;47.930;9.766;2022-07-10T16:02:09;22.80;95.20
21261;DHT22;10788;47.930;9.766;2022-07-10T16:04:37;22.90;94.10
21261;DHT22;10788;47.930;9.766;2022-07-10T16:07:04;22.90;95.20
21261;DHT22;10788;47.930;9.766;2022-07-10T16:09:30;23.00;95.50
21261;DHT22;10788;47.930;9.766;2022-07-10T16:11:56;23.10;95.00
21261;DHT22;10788;47.930;9.766;2022-07-10T16:14:21;23.10;94.90